createdAt,value
2024-02-08T00:00:17.087Z,0.33
2024-02-08T00:03:39.310Z,0.33
2024-02-08T00:06:41.311Z,0.32
2024-02-08T00:09:43.236Z,0.32
2024-02-08T00:12:45.161Z,0.32
2024-02-08T00:15:47.024Z,0.31
2024-02-08T00:18:48.848Z,0.30
2024-02-08T00:21:50.684Z,0.28
2024-02-08T00:24:52.287Z,0.25
2024-02-08T00:27:54.615Z,0.20
2024-02-08T00:30:56.578Z,0.14
2024-02-08T00:34:04.276Z,0.09
2024-02-08T00:37:06.349Z,0.06
2024-02-08T00:40:08.816Z,0.04
2024-02-08T00:43:10.773Z,0.02
2024-02-08T00:46:12.557Z,0.01
2024-02-08T00:49:23.258Z,0.01
2024-02-08T00:52:25.030Z,0.00
2024-02-08T00:55:26.886Z,0.01
2024-02-08T00:58:28.575Z,0.01
2024-02-08T01:01:30.437Z,0.01
2024-02-08T01:04:34.508Z,-0.01
2024-02-08T01:07:37.369Z,-0.01
2024-02-08T01:10:39.158Z,-0.02
2024-02-08T01:13:41.317Z,-0.03
2024-02-08T01:16:45.980Z,-0.03
2024-02-08T01:19:47.787Z,-0.02
2024-02-08T01:22:52.927Z,-0.01
2024-02-08T01:25:54.846Z,0.00
2024-02-08T01:28:56.578Z,0.02
2024-02-08T01:31:58.475Z,0.03
2024-02-08T01:35:02.009Z,0.03
2024-02-08T01:38:04.217Z,0.04
2024-02-08T01:41:14.916Z,0.04
2024-02-08T01:44:16.861Z,0.03
2024-02-08T01:47:18.915Z,0.03
2024-02-08T01:50:21.051Z,0.04
2024-02-08T01:53:24.781Z,0.02
2024-02-08T01:56:26.741Z,0.01
2024-02-08T01:59:29.085Z,0.01
2024-02-08T02:02:31.069Z,0.01
2024-02-08T02:05:33.141Z,-0.01
2024-02-08T02:08:35.138Z,-0.01
2024-02-08T02:11:42.983Z,-0.01
2024-02-08T02:14:45.094Z,-0.01
2024-02-08T02:17:47.094Z,-0.01
2024-02-08T02:20:48.964Z,-0.01
2024-02-08T02:23:50.944Z,-0.01
2024-02-08T02:26:53.941Z,-0.02
2024-02-08T02:29:56.367Z,-0.01
2024-02-08T02:32:58.928Z,-0.01
2024-02-08T02:36:02.458Z,-0.00
2024-02-08T02:39:04.388Z,-0.01
2024-02-08T02:42:06.474Z,0.01
2024-02-08T02:45:08.866Z,0.01
2024-02-08T02:48:11.913Z,0.00
2024-02-08T02:51:16.556Z,0.01
2024-02-08T02:54:21.358Z,0.00
2024-02-08T02:57:23.112Z,-0.01
2024-02-08T03:00:27.884Z,-0.01
2024-02-08T03:03:29.724Z,-0.02
2024-02-08T03:06:31.551Z,-0.03
2024-02-08T03:09:33.386Z,-0.04
2024-02-08T03:12:35.245Z,-0.04
2024-02-08T03:15:37.659Z,-0.04
2024-02-08T03:18:39.678Z,-0.05
2024-02-08T03:22:01.040Z,-0.05
2024-02-08T03:25:05.980Z,-0.04
2024-02-08T03:28:07.935Z,-0.04
2024-02-08T03:31:10.002Z,-0.05
2024-02-08T03:34:16.253Z,-0.05
2024-02-08T03:37:18.441Z,-0.04
2024-02-08T03:40:23.921Z,-0.04
2024-02-08T03:43:25.981Z,-0.04
2024-02-08T03:46:28.363Z,-0.03
2024-02-08T03:49:32.812Z,-0.04
2024-02-08T03:52:38.248Z,-0.03
2024-02-08T03:55:40.395Z,-0.04
2024-02-08T03:58:47.640Z,-0.03
2024-02-08T04:01:50.284Z,-0.04
2024-02-08T04:04:52.167Z,-0.03
2024-02-08T04:07:54.025Z,-0.03
2024-02-08T04:11:03.468Z,-0.03
2024-02-08T04:14:05.352Z,-0.03
2024-02-08T04:17:07.267Z,-0.04
2024-02-08T04:20:09.434Z,-0.05
2024-02-08T04:23:14.671Z,-0.06
2024-02-08T04:26:16.516Z,-0.06
2024-02-08T04:29:21.346Z,-0.07
2024-02-08T04:32:23.273Z,-0.09
2024-02-08T04:35:28.666Z,-0.10
2024-02-08T04:38:32.751Z,-0.10
2024-02-08T04:41:34.701Z,-0.11
2024-02-08T04:44:36.544Z,-0.11
2024-02-08T04:47:38.348Z,-0.12
2024-02-08T04:50:41.026Z,-0.13
2024-02-08T04:53:42.889Z,-0.13
2024-02-08T04:56:44.564Z,-0.14
2024-02-08T04:59:47.039Z,-0.14
2024-02-08T05:02:49.088Z,-0.16
2024-02-08T05:05:50.913Z,-0.20
2024-02-08T05:08:52.977Z,-0.33
2024-02-08T05:11:54.897Z,-0.46
2024-02-08T05:14:56.750Z,-0.54
2024-02-08T05:17:58.660Z,-0.59
2024-02-08T05:21:00.981Z,-0.61
2024-02-08T05:24:02.956Z,-0.65
2024-02-08T05:27:04.641Z,-0.71
2024-02-08T05:30:16.005Z,-0.80
2024-02-08T05:33:18.482Z,-0.87
2024-02-08T05:36:20.524Z,-0.82
2024-02-08T05:39:22.097Z,-0.48
2024-02-08T05:42:23.964Z,-0.30
2024-02-08T05:45:28.749Z,-0.49
2024-02-08T05:48:54.126Z,-0.59
2024-02-08T05:52:03.618Z,-0.64
2024-02-08T05:55:06.062Z,-0.69
2024-02-08T05:58:08.302Z,-0.73
2024-02-08T06:01:10.501Z,-0.76
2024-02-08T06:04:13.098Z,-0.76
2024-02-08T06:07:15.056Z,-0.79
2024-02-08T06:10:17.180Z,-0.83
2024-02-08T06:13:19.348Z,-0.79
2024-02-08T06:16:21.308Z,-0.65
2024-02-08T06:19:23.103Z,-0.54
2024-02-08T06:22:25.054Z,-0.65
2024-02-08T06:25:26.817Z,-0.69
2024-02-08T06:28:28.825Z,-0.68
2024-02-08T06:31:34.134Z,-0.68
2024-02-08T06:34:39.015Z,-0.60
2024-02-08T06:37:41.711Z,-0.45
2024-02-08T06:40:43.459Z,-0.34
2024-02-08T06:43:45.281Z,-0.27
2024-02-08T06:46:46.931Z,-0.17
2024-02-08T06:49:48.815Z,-0.11
2024-02-08T06:52:50.632Z,-0.06
2024-02-08T06:55:52.390Z,-0.01
2024-02-08T06:58:54.316Z,0.05
2024-02-08T07:02:07.920Z,0.11
2024-02-08T07:05:13.109Z,0.15
2024-02-08T07:08:15.574Z,0.19
2024-02-08T07:11:17.787Z,0.23
2024-02-08T07:14:19.658Z,0.26
2024-02-08T07:17:21.536Z,0.29
2024-02-08T07:20:23.401Z,0.31
2024-02-08T07:23:25.395Z,0.33
2024-02-08T07:26:30.366Z,0.34
2024-02-08T07:29:32.055Z,0.38
2024-02-08T07:32:36.902Z,0.42
2024-02-08T07:35:38.870Z,0.48
2024-02-08T07:38:40.702Z,0.54
2024-02-08T07:41:42.628Z,0.60
2024-02-08T07:44:44.628Z,0.64
2024-02-08T07:47:47.251Z,0.68
2024-02-08T07:50:49.019Z,0.72
2024-02-08T07:53:51.076Z,0.75
2024-02-08T07:56:52.723Z,0.80
2024-02-08T08:00:00.336Z,0.84
2024-02-08T08:03:02.974Z,0.86
2024-02-08T08:06:05.107Z,0.87
2024-02-08T08:09:06.911Z,0.89
2024-02-08T08:12:09.135Z,0.94
2024-02-08T08:15:10.976Z,0.98
2024-02-08T08:18:12.877Z,1.00
2024-02-08T08:21:15.046Z,1.01
2024-02-08T08:24:16.776Z,1.05
2024-02-08T08:27:19.040Z,1.15
2024-02-08T08:30:21.194Z,1.21
2024-02-08T08:33:22.988Z,1.19
2024-02-08T08:36:24.693Z,1.16
2024-02-08T08:39:26.658Z,1.16
2024-02-08T08:42:28.316Z,1.17
2024-02-08T08:45:30.163Z,1.19
2024-02-08T08:48:32.240Z,1.23
2024-02-08T08:51:34.420Z,1.31
2024-02-08T08:54:36.209Z,1.38
2024-02-08T08:57:38.799Z,1.44
2024-02-08T09:00:40.853Z,1.52
2024-02-08T09:03:46.635Z,1.61
2024-02-08T09:06:48.635Z,1.71
2024-02-08T09:09:50.763Z,1.80
2024-02-08T09:12:52.724Z,1.80
2024-02-08T09:15:54.755Z,1.81
2024-02-08T09:18:57.616Z,1.86
2024-02-08T09:21:59.629Z,1.92
2024-02-08T09:25:01.915Z,2.00
2024-02-08T09:28:04.267Z,2.10
2024-02-08T09:31:06.666Z,2.20
2024-02-08T09:34:08.688Z,2.10
2024-02-08T09:37:13.705Z,2.05
2024-02-08T09:40:16.896Z,2.05
2024-02-08T09:43:19.603Z,1.99
2024-02-08T09:46:23.394Z,1.99
2024-02-08T09:49:25.577Z,2.05
2024-02-08T09:52:31.116Z,2.09
2024-02-08T09:55:33.157Z,2.14
2024-02-08T09:58:39.283Z,2.21
2024-02-08T10:01:52.555Z,2.29
2024-02-08T10:04:56.031Z,2.39
2024-02-08T10:07:57.965Z,2.40
2024-02-08T10:11:02.605Z,2.44
2024-02-08T10:14:06.307Z,2.39
2024-02-08T10:17:18.039Z,2.33
2024-02-08T10:20:22.309Z,2.39
2024-02-08T10:23:24.185Z,2.42
2024-02-08T10:26:38.982Z,2.38
2024-02-08T10:29:40.973Z,2.34
2024-02-08T10:32:43.424Z,2.27
2024-02-08T10:35:45.257Z,2.20
2024-02-08T10:38:48.150Z,2.18
2024-02-08T10:41:50.319Z,2.14
2024-02-08T10:44:52.227Z,2.17
2024-02-08T10:47:55.685Z,2.17
2024-02-08T10:50:58.308Z,2.14
2024-02-08T10:54:00.248Z,2.09
2024-02-08T10:57:02.239Z,2.05
2024-02-08T11:00:04.605Z,2.06
2024-02-08T11:03:07.331Z,2.04
2024-02-08T11:06:11.247Z,2.08
2024-02-08T11:09:13.386Z,2.10
2024-02-08T11:12:20.579Z,2.07
2024-02-08T11:15:25.083Z,2.08
2024-02-08T11:18:27.044Z,2.15
2024-02-08T11:21:29.328Z,2.19
2024-02-08T11:24:31.444Z,2.19
2024-02-08T11:27:33.521Z,2.20
2024-02-08T11:30:35.838Z,2.13
2024-02-08T11:33:38.441Z,2.10
2024-02-08T11:36:48.574Z,2.11
2024-02-08T11:40:03.188Z,2.12
2024-02-08T11:43:08.040Z,2.12
2024-02-08T11:46:14.766Z,2.12
2024-02-08T11:49:20.658Z,2.12
2024-02-08T11:52:22.750Z,2.13
2024-02-08T11:55:25.011Z,2.13
2024-02-08T11:58:27.138Z,2.14
2024-02-08T12:01:29.220Z,2.15
2024-02-08T12:04:32.207Z,2.16
2024-02-08T12:07:44.027Z,2.13
2024-02-08T12:10:49.626Z,2.06
2024-02-08T12:13:51.695Z,1.98
2024-02-08T12:16:54.720Z,1.92
2024-02-08T12:19:59.556Z,1.95
2024-02-08T12:23:01.591Z,1.97
2024-02-08T12:26:06.477Z,2.01
2024-02-08T12:29:09.074Z,2.03
2024-02-08T12:32:14.443Z,1.99
2024-02-08T12:35:16.444Z,1.99
2024-02-08T12:38:18.506Z,2.00
2024-02-08T12:41:20.668Z,1.95
2024-02-08T12:44:22.571Z,1.91
2024-02-08T12:47:24.441Z,1.85
2024-02-08T12:50:28.825Z,1.78
2024-02-08T12:53:32.263Z,1.74
2024-02-08T12:56:37.130Z,1.70
2024-02-08T12:59:42.925Z,1.62
2024-02-08T13:02:44.737Z,1.64
2024-02-08T13:05:46.861Z,1.68
2024-02-08T13:09:09.141Z,1.66
2024-02-08T13:12:14.264Z,1.62
2024-02-08T13:15:20.531Z,1.55
2024-02-08T13:18:22.530Z,1.50
2024-02-08T13:21:24.493Z,1.46
2024-02-08T13:24:26.351Z,1.43
2024-02-08T13:27:29.169Z,1.41
2024-02-08T13:30:31.225Z,1.37
2024-02-08T13:33:35.377Z,1.34
2024-02-08T13:36:37.428Z,1.29
2024-02-08T13:39:45.781Z,1.27
2024-02-08T13:42:54.496Z,1.22
2024-02-08T13:45:57.808Z,1.17
2024-02-08T13:49:00.023Z,1.17
2024-02-08T13:52:05.287Z,1.23
2024-02-08T13:55:07.387Z,1.28
2024-02-08T13:58:09.353Z,1.21
2024-02-08T14:01:11.508Z,1.15
2024-02-08T14:04:13.467Z,1.13
2024-02-08T14:07:15.675Z,1.14
2024-02-08T14:10:17.659Z,1.16
2024-02-08T14:13:20.866Z,1.18
2024-02-08T14:16:26.066Z,1.17
2024-02-08T14:19:28.032Z,1.17
2024-02-08T14:22:30.060Z,1.23
2024-02-08T14:25:32.216Z,1.27
2024-02-08T14:28:38.393Z,1.29
2024-02-08T14:31:41.504Z,1.23
2024-02-08T14:34:44.935Z,1.21
2024-02-08T14:38:26.325Z,1.26
2024-02-08T14:41:28.797Z,1.31
2024-02-08T14:44:31.052Z,1.28
2024-02-08T14:47:33.101Z,1.28
2024-02-08T14:50:38.583Z,1.29
2024-02-08T14:53:40.670Z,1.31
2024-02-08T14:56:42.603Z,1.33
2024-02-08T14:59:44.599Z,1.34
2024-02-08T15:02:46.512Z,1.33
2024-02-08T15:05:49.773Z,1.32
2024-02-08T15:08:52.677Z,1.32
2024-02-08T15:11:55.380Z,1.32
2024-02-08T15:15:00.625Z,1.30
2024-02-08T15:18:02.724Z,1.29
2024-02-08T15:21:07.996Z,1.31
2024-02-08T15:24:10.241Z,1.28
2024-02-08T15:27:18.141Z,1.29
2024-02-08T15:30:23.157Z,1.27
2024-02-08T15:33:25.448Z,1.22
2024-02-08T15:36:27.622Z,1.20
2024-02-08T15:39:32.897Z,1.18
2024-02-08T15:43:14.973Z,1.15
2024-02-08T15:46:17.075Z,1.12
2024-02-08T15:49:22.260Z,1.11
2024-02-08T15:52:25.522Z,1.08
2024-02-08T15:55:27.563Z,1.04
2024-02-08T15:58:29.556Z,1.02
2024-02-08T16:01:31.708Z,1.00
2024-02-08T16:04:36.357Z,1.00
2024-02-08T16:07:38.717Z,0.97
2024-02-08T16:10:41.369Z,0.95
2024-02-08T16:13:43.223Z,0.93
2024-02-08T16:16:45.189Z,0.92
2024-02-08T16:19:46.947Z,0.92
2024-02-08T16:22:49.181Z,0.90
2024-02-08T16:25:51.813Z,0.91
2024-02-08T16:28:53.749Z,0.90
2024-02-08T16:31:55.666Z,0.89
2024-02-08T16:35:26.517Z,0.86
2024-02-08T16:38:29.264Z,0.84
2024-02-08T16:41:31.629Z,0.83
2024-02-08T16:44:33.530Z,0.83
2024-02-08T16:47:35.777Z,0.81
2024-02-08T16:50:38.275Z,0.81
2024-02-08T16:53:40.630Z,0.80
2024-02-08T16:56:42.516Z,0.76
2024-02-08T16:59:44.456Z,0.68
2024-02-08T17:02:46.419Z,0.65
2024-02-08T17:05:48.466Z,0.63
2024-02-08T17:08:50.473Z,0.65
2024-02-08T17:11:52.435Z,0.68
2024-02-08T17:14:54.485Z,0.68
2024-02-08T17:17:57.415Z,0.69
2024-02-08T17:20:59.515Z,0.71
2024-02-08T17:24:11.421Z,0.70
2024-02-08T17:27:13.098Z,0.71
2024-02-08T17:30:18.821Z,0.72
2024-02-08T17:33:21.046Z,0.71
2024-02-08T17:36:25.525Z,0.62
2024-02-08T17:39:28.638Z,0.35
2024-02-08T17:42:50.867Z,0.07
2024-02-08T17:45:57.139Z,-0.10
2024-02-08T17:49:03.020Z,-0.11
2024-02-08T17:52:13.989Z,-0.12
2024-02-08T17:55:16.396Z,-0.10
2024-02-08T17:58:21.452Z,-0.06
2024-02-08T18:01:23.898Z,-0.19
2024-02-08T18:04:27.378Z,-0.26
2024-02-08T18:07:29.565Z,-0.09
2024-02-08T18:10:31.774Z,0.08
2024-02-08T18:13:33.833Z,-0.06
2024-02-08T18:16:36.142Z,-0.16
2024-02-08T18:19:38.584Z,-0.19
2024-02-08T18:22:40.856Z,-0.25
2024-02-08T18:25:45.508Z,-0.26
2024-02-08T18:28:47.554Z,-0.25
2024-02-08T18:31:51.943Z,-0.21
2024-02-08T18:34:53.985Z,-0.15
2024-02-08T18:37:55.971Z,-0.12
2024-02-08T18:40:58.057Z,0.01
2024-02-08T18:44:00.125Z,0.17
2024-02-08T18:47:02.887Z,0.24
2024-02-08T18:50:08.807Z,0.15
2024-02-08T18:53:13.366Z,0.07
2024-02-08T18:56:15.569Z,0.10
2024-02-08T18:59:17.362Z,0.07
2024-02-08T19:02:19.855Z,0.03
2024-02-08T19:05:25.298Z,0.04
2024-02-08T19:08:28.372Z,0.05
2024-02-08T19:11:30.500Z,0.03
2024-02-08T19:14:32.344Z,-0.01
2024-02-08T19:17:34.715Z,0.08
2024-02-08T19:20:36.991Z,0.27
2024-02-08T19:23:38.894Z,0.14
2024-02-08T19:26:41.130Z,-0.03
2024-02-08T19:29:43.650Z,-0.05
2024-02-08T19:33:04.900Z,-0.01
2024-02-08T19:36:09.359Z,0.09
2024-02-08T19:39:11.251Z,0.05
2024-02-08T19:42:13.262Z,0.05
2024-02-08T19:45:36.528Z,0.09
2024-02-08T19:48:38.632Z,0.14
2024-02-08T19:51:40.585Z,0.04
2024-02-08T19:54:43.062Z,0.06
2024-02-08T19:57:44.977Z,0.25
2024-02-08T20:00:50.181Z,0.26
2024-02-08T20:03:53.393Z,0.12
2024-02-08T20:06:55.397Z,0.01
2024-02-08T20:09:58.455Z,-0.06
2024-02-08T20:13:00.714Z,-0.10
2024-02-08T20:16:02.668Z,-0.10
2024-02-08T20:19:06.117Z,-0.07
2024-02-08T20:22:09.625Z,-0.01
2024-02-08T20:25:12.389Z,-0.01
2024-02-08T20:28:14.412Z,-0.09
2024-02-08T20:31:16.359Z,-0.06
2024-02-08T20:34:18.303Z,0.17
2024-02-08T20:37:20.666Z,0.19
2024-02-08T20:40:23.463Z,0.05
2024-02-08T20:43:25.622Z,0.01
2024-02-08T20:46:27.742Z,0.02
2024-02-08T20:49:30.000Z,-0.04
2024-02-08T20:52:32.287Z,-0.03
2024-02-08T20:55:34.195Z,-0.02
2024-02-08T20:58:37.753Z,0.04
2024-02-08T21:01:39.600Z,0.10
2024-02-08T21:04:41.496Z,0.14
2024-02-08T21:07:43.358Z,0.04
2024-02-08T21:10:45.388Z,0.13
2024-02-08T21:13:52.640Z,0.31
2024-02-08T21:16:54.508Z,0.27
2024-02-08T21:19:56.968Z,0.05
2024-02-08T21:22:58.717Z,-0.04
2024-02-08T21:26:00.494Z,-0.08
2024-02-08T21:29:02.406Z,-0.09
2024-02-08T21:32:07.698Z,-0.03
2024-02-08T21:35:09.595Z,0.09
2024-02-08T21:38:11.650Z,0.24
2024-02-08T21:41:14.697Z,0.36
2024-02-08T21:44:16.686Z,0.47
2024-02-08T21:47:18.491Z,0.56
2024-02-08T21:50:20.673Z,0.63
2024-02-08T21:53:22.464Z,0.69
2024-02-08T21:56:24.147Z,0.75
2024-02-08T21:59:25.901Z,0.80
2024-02-08T22:02:27.893Z,0.83
2024-02-08T22:05:30.071Z,0.88
2024-02-08T22:08:35.240Z,0.91
2024-02-08T22:11:53.650Z,0.95
2024-02-08T22:14:55.732Z,0.96
2024-02-08T22:17:57.759Z,0.98
2024-02-08T22:20:59.657Z,1.00
2024-02-08T22:24:01.705Z,1.03
2024-02-08T22:27:03.891Z,1.03
2024-02-08T22:30:06.795Z,1.02
2024-02-08T22:33:08.824Z,1.02
2024-02-08T22:36:11.170Z,1.00
2024-02-08T22:39:13.557Z,1.00
2024-02-08T22:42:15.460Z,1.00
2024-02-08T22:45:17.617Z,1.01
2024-02-08T22:48:22.774Z,1.04
2024-02-08T22:51:24.667Z,1.03
2024-02-08T22:54:26.584Z,1.04
2024-02-08T22:57:28.533Z,1.04
2024-02-08T23:00:30.571Z,1.04
2024-02-08T23:03:32.778Z,1.03
2024-02-08T23:06:36.830Z,1.01
2024-02-08T23:09:39.577Z,1.00
2024-02-08T23:12:41.566Z,0.99
2024-02-08T23:15:44.893Z,1.01
2024-02-08T23:18:46.969Z,0.99
2024-02-08T23:21:48.880Z,0.98
2024-02-08T23:24:53.584Z,0.96
2024-02-08T23:28:07.638Z,0.97
2024-02-08T23:31:09.671Z,0.99
2024-02-08T23:34:12.768Z,0.99
2024-02-08T23:37:14.876Z,1.01
2024-02-08T23:40:17.346Z,1.04
2024-02-08T23:43:19.666Z,1.05
2024-02-08T23:46:21.737Z,1.04
2024-02-08T23:49:24.097Z,1.05
2024-02-08T23:52:30.856Z,1.09
2024-02-08T23:55:44.583Z,1.11
2024-02-08T23:59:19.548Z,1.11
